createdAt,value
2023-01-04T00:04:08.048Z,83.48
2023-01-04T00:09:11.622Z,83.81
2023-01-04T00:14:17.490Z,84.09
2023-01-04T00:19:20.977Z,84.21
2023-01-04T00:24:24.695Z,84.39
2023-01-04T00:29:28.314Z,84.44
2023-01-04T00:34:31.828Z,84.71
2023-01-04T00:39:35.345Z,84.72
2023-01-04T00:44:38.965Z,84.71
2023-01-04T00:49:42.479Z,84.77
2023-01-04T00:54:46.813Z,84.79
2023-01-04T00:59:50.233Z,85.12
2023-01-04T01:04:53.741Z,84.95
2023-01-04T01:09:57.156Z,85.03
2023-01-04T01:15:01.065Z,85.00
2023-01-04T01:20:06.068Z,85.38
2023-01-04T01:25:09.856Z,85.27
2023-01-04T01:30:13.778Z,85.46
2023-01-04T01:35:17.604Z,85.51
2023-01-04T01:40:21.020Z,85.75
2023-01-04T01:45:33.953Z,86.01
2023-01-04T01:50:45.249Z,86.10
2023-01-04T01:55:51.766Z,86.05
2023-01-04T02:00:55.357Z,85.91
2023-01-04T02:06:02.177Z,85.97
2023-01-04T02:11:05.996Z,85.84
2023-01-04T02:16:31.658Z,85.87
2023-01-04T02:21:57.033Z,85.81
2023-01-04T02:27:31.676Z,85.78
2023-01-04T02:32:51.166Z,85.85
2023-01-04T02:38:26.220Z,85.55
2023-01-04T02:44:14.589Z,85.57
2023-01-04T02:49:37.047Z,85.59
2023-01-04T02:54:42.332Z,85.70
2023-01-04T02:59:51.557Z,85.76
2023-01-04T03:05:36.235Z,85.87
2023-01-04T03:10:45.895Z,85.97
2023-01-04T03:15:58.421Z,85.91
2023-01-04T03:21:04.854Z,86.15
2023-01-04T03:26:36.785Z,86.29
2023-01-04T03:32:06.723Z,86.42
2023-01-04T03:37:16.791Z,86.59
2023-01-04T03:43:15.704Z,86.48
2023-01-04T03:48:32.694Z,86.58
2023-01-04T03:54:06.667Z,86.62
2023-01-04T03:59:11.954Z,86.73
2023-01-04T04:04:34.380Z,86.77
2023-01-04T04:09:38.100Z,87.01
2023-01-04T04:14:41.621Z,86.68
2023-01-04T04:19:45.145Z,86.71
2023-01-04T04:24:48.648Z,87.27
2023-01-04T04:29:52.265Z,87.42
2023-01-04T04:34:55.784Z,87.49
2023-01-04T04:39:59.501Z,87.28
2023-01-04T04:45:02.978Z,87.50
2023-01-04T04:50:06.944Z,87.73
2023-01-04T04:55:10.464Z,87.73
2023-01-04T05:00:14.828Z,88.06
2023-01-04T05:05:18.203Z,87.67
2023-01-04T05:10:21.720Z,87.76
2023-01-04T05:15:27.469Z,87.64
2023-01-04T05:20:31.004Z,87.92
2023-01-04T05:25:34.848Z,87.89
2023-01-04T05:30:50.903Z,87.97
2023-01-04T05:35:56.403Z,87.97
2023-01-04T05:40:59.924Z,88.00
2023-01-04T05:46:03.384Z,87.81
2023-01-04T05:51:07.064Z,88.18
2023-01-04T05:56:10.566Z,88.12
2023-01-04T06:01:14.136Z,88.07
2023-01-04T06:06:17.800Z,88.25
2023-01-04T06:11:27.202Z,88.26
2023-01-04T06:16:31.551Z,88.14
2023-01-04T06:21:35.224Z,88.18
2023-01-04T06:26:38.829Z,88.10
2023-01-04T06:31:42.445Z,88.22
2023-01-04T06:36:45.960Z,88.15
2023-01-04T06:41:49.373Z,88.07
2023-01-04T06:46:52.993Z,87.93
2023-01-04T06:51:56.611Z,88.17
2023-01-04T06:57:00.026Z,88.14
2023-01-04T07:02:03.744Z,87.88
2023-01-04T07:07:07.566Z,88.05
2023-01-04T07:12:11.081Z,88.00
2023-01-04T07:17:15.004Z,87.97
2023-01-04T07:22:18.530Z,87.91
2023-01-04T07:27:22.243Z,88.03
2023-01-04T07:32:25.861Z,87.92
2023-01-04T07:37:29.385Z,88.05
2023-01-04T07:42:32.992Z,87.99
2023-01-04T07:47:36.534Z,88.11
2023-01-04T07:52:40.037Z,88.09
2023-01-04T07:57:43.554Z,88.07
2023-01-04T08:02:50.277Z,87.81
2023-01-04T08:07:53.953Z,87.60
2023-01-04T08:13:00.341Z,87.71
2023-01-04T08:18:04.155Z,87.51
2023-01-04T08:23:07.569Z,87.34
2023-01-04T08:28:11.102Z,87.26
2023-01-04T08:33:15.837Z,87.41
2023-01-04T08:38:58.308Z,87.46
2023-01-04T08:43:43.388Z,87.14
2023-01-04T08:48:46.853Z,87.25
2023-01-04T08:53:50.985Z,87.30
2023-01-04T08:58:54.597Z,86.89
2023-01-04T09:03:58.377Z,87.27
2023-01-04T09:09:02.053Z,87.45
2023-01-04T09:14:08.452Z,87.53
2023-01-04T09:19:18.084Z,87.39
2023-01-04T09:24:25.516Z,87.03
2023-01-04T09:29:29.007Z,86.91
2023-01-04T09:34:32.623Z,87.59
2023-01-04T09:39:36.139Z,87.75
2023-01-04T09:45:21.241Z,87.92
2023-01-04T09:50:15.739Z,87.88
2023-01-04T09:55:38.024Z,87.94
2023-01-04T10:00:52.899Z,88.29
2023-01-04T10:05:57.207Z,88.36
2023-01-04T10:11:18.641Z,88.61
2023-01-04T10:17:13.698Z,88.51
2023-01-04T10:22:32.743Z,88.57
2023-01-04T10:27:46.303Z,88.74
2023-01-04T10:33:23.200Z,88.64
2023-01-04T10:38:33.264Z,88.44
2023-01-04T10:44:11.600Z,88.68
2023-01-04T10:49:29.444Z,88.89
2023-01-04T10:54:49.856Z,88.95
2023-01-04T11:00:20.100Z,89.07
2023-01-04T11:05:40.816Z,88.87
2023-01-04T11:10:48.433Z,88.54
2023-01-04T11:15:53.052Z,88.67
2023-01-04T11:20:56.486Z,88.97
2023-01-04T11:26:08.294Z,88.37
2023-01-04T11:31:25.164Z,88.25
2023-01-04T11:36:39.191Z,88.38
2023-01-04T11:42:02.962Z,88.46
2023-01-04T11:47:19.810Z,88.24
2023-01-04T11:52:34.277Z,88.29
2023-01-04T11:57:37.687Z,88.00
2023-01-04T12:08:05.207Z,87.87
2023-01-04T12:13:10.864Z,87.61
2023-01-04T12:18:23.288Z,87.78
2023-01-04T12:23:26.806Z,87.69
2023-01-04T12:28:40.183Z,87.69
2023-01-04T12:33:43.563Z,87.30
2023-01-04T12:38:53.221Z,87.61
2023-01-04T12:43:56.648Z,87.68
2023-01-04T12:49:20.122Z,87.80
2023-01-04T12:54:32.360Z,87.34
2023-01-04T12:59:39.167Z,87.26
2023-01-04T13:04:43.164Z,87.07
2023-01-04T13:09:54.777Z,86.52
2023-01-04T13:15:04.753Z,86.71
2023-01-04T13:20:30.366Z,86.15
2023-01-04T13:25:36.153Z,86.25
2023-01-04T13:30:40.063Z,86.14
2023-01-04T13:36:01.817Z,86.15
2023-01-04T13:41:20.375Z,86.13
2023-01-04T13:46:25.886Z,86.14
2023-01-04T13:51:39.588Z,86.13
2023-01-04T13:56:43.311Z,86.21
2023-01-04T14:01:51.794Z,86.27
2023-01-04T14:06:59.764Z,86.44
2023-01-04T14:12:26.732Z,86.46
2023-01-04T14:17:50.308Z,86.67
2023-01-04T14:22:56.697Z,86.67
2023-01-04T14:28:19.526Z,86.63
2023-01-04T14:33:26.974Z,86.93
2023-01-04T14:38:31.304Z,86.93
2023-01-04T14:43:36.355Z,87.00
2023-01-04T14:48:39.871Z,87.13
2023-01-04T14:53:43.592Z,87.42
2023-01-04T14:58:47.312Z,87.13
2023-01-04T15:03:50.896Z,87.30
2023-01-04T15:08:54.552Z,87.31
2023-01-04T15:13:58.079Z,87.47
2023-01-04T15:19:01.522Z,87.53
2023-01-04T15:24:06.735Z,87.81
2023-01-04T15:29:10.056Z,88.04
2023-01-04T15:34:14.685Z,88.24
2023-01-04T15:39:18.230Z,88.24
2023-01-04T15:44:21.728Z,88.46
2023-01-04T15:49:25.539Z,88.90
2023-01-04T15:54:29.375Z,89.06
2023-01-04T15:59:33.081Z,89.18
2023-01-04T16:04:37.446Z,89.42
2023-01-04T16:09:41.029Z,89.77
2023-01-04T16:14:44.676Z,89.94
2023-01-04T16:19:48.170Z,90.38
2023-01-04T16:30:15.485Z,91.17
2023-01-04T16:35:18.992Z,91.75
2023-01-04T16:40:23.124Z,92.00
2023-01-04T16:45:26.469Z,92.12
2023-01-04T16:50:29.939Z,92.23
2023-01-04T16:55:34.287Z,92.39
2023-01-04T17:00:37.769Z,92.89
2023-01-04T17:05:41.417Z,92.86
2023-01-04T17:10:45.134Z,93.00
2023-01-04T17:15:48.655Z,93.28
2023-01-04T17:21:16.764Z,93.71
2023-01-04T17:26:27.169Z,94.31
2023-01-04T17:31:40.203Z,94.50
2023-01-04T17:36:44.618Z,94.80
2023-01-04T17:41:47.804Z,94.87
2023-01-04T17:46:51.331Z,95.17
2023-01-04T17:51:55.583Z,95.44
2023-01-04T17:56:58.963Z,95.94
2023-01-04T18:02:02.592Z,96.19
2023-01-04T18:07:06.200Z,96.13
2023-01-04T18:12:09.714Z,96.52
2023-01-04T18:17:13.778Z,96.67
2023-01-04T18:22:17.370Z,96.66
2023-01-04T18:27:25.911Z,96.63
2023-01-04T18:32:30.331Z,97.01
2023-01-04T18:37:38.454Z,97.26
2023-01-04T18:42:46.606Z,97.10
2023-01-04T18:47:50.092Z,97.03
2023-01-04T18:52:54.325Z,97.60
2023-01-04T18:57:57.743Z,97.41
2023-01-04T19:03:01.780Z,97.64
2023-01-04T19:08:05.693Z,97.43
2023-01-04T19:13:09.103Z,97.60
2023-01-04T19:18:12.637Z,97.78
2023-01-04T19:23:16.238Z,98.11
2023-01-04T19:28:19.861Z,98.26
2023-01-04T19:33:23.379Z,98.80
2023-01-04T19:38:27.005Z,98.91
2023-01-04T19:43:30.505Z,99.45
2023-01-04T19:48:34.024Z,99.72
2023-01-04T19:53:38.460Z,99.94
2023-01-04T19:58:41.985Z,99.95
2023-01-04T20:03:45.659Z,99.97
2023-01-04T20:08:49.215Z,100.00
2023-01-04T20:13:53.449Z,100.00
2023-01-04T20:18:58.190Z,100.00
2023-01-04T20:24:01.912Z,100.00
2023-01-04T20:29:17.622Z,100.00
2023-01-04T20:34:21.233Z,100.00
2023-01-04T20:39:24.848Z,100.00
2023-01-04T20:44:28.567Z,100.00
2023-01-04T20:49:32.084Z,100.00
2023-01-04T20:54:35.904Z,100.00
2023-01-04T20:59:39.320Z,100.00
2023-01-04T21:04:46.422Z,100.00
2023-01-04T21:09:49.937Z,100.00
2023-01-04T21:14:53.455Z,100.00
2023-01-04T21:19:56.971Z,100.00
2023-01-04T21:25:00.632Z,100.00
2023-01-04T21:30:05.826Z,100.00
2023-01-04T21:35:09.867Z,100.00
2023-01-04T21:40:13.284Z,100.00
2023-01-04T21:45:16.834Z,100.00
2023-01-04T21:50:20.414Z,100.00
2023-01-04T21:55:26.165Z,100.00
2023-01-04T22:00:33.177Z,100.00
2023-01-04T22:05:36.701Z,100.00
2023-01-04T22:10:40.314Z,100.00
2023-01-04T22:15:43.842Z,100.00
2023-01-04T22:20:47.649Z,100.00
2023-01-04T22:25:51.171Z,100.00
2023-01-04T22:30:56.218Z,100.00
2023-01-04T22:35:59.627Z,100.00
2023-01-04T22:41:12.465Z,100.00
2023-01-04T22:46:18.784Z,100.00
2023-01-04T22:51:22.875Z,100.00
2023-01-04T22:56:26.918Z,100.00
2023-01-04T23:01:33.301Z,100.00
2023-01-04T23:06:36.798Z,100.00
2023-01-04T23:11:41.342Z,100.00
2023-01-04T23:16:45.341Z,100.00
2023-01-04T23:21:48.879Z,100.00
2023-01-04T23:26:52.524Z,100.00
2023-01-04T23:31:56.283Z,100.00
2023-01-04T23:36:59.838Z,100.00
2023-01-04T23:42:03.557Z,100.00
2023-01-04T23:47:08.196Z,100.00
2023-01-04T23:52:12.239Z,100.00
2023-01-04T23:57:15.749Z,100.00
